sensor_id;sensor_type;location;lat;lon;timestamp;P1;durP1;ratioP1;P2;durP2;ratioP2
4732;SDS011;2380;53.668;10.008;2022-11-27T00:01:33;59.90;;;21.47;;
4732;SDS011;2380;53.668;10.008;2022-11-27T00:04:04;54.73;;;21.63;;
4732;SDS011;2380;53.668;10.008;2022-11-27T00:06:38;46.63;;;20.27;;
4732;SDS011;2380;53.668;10.008;2022-11-27T00:09:09;51.63;;;20.00;;
4732;SDS011;2380;53.668;10.008;2022-11-27T00:11:40;50.97;;;21.57;;
4732;SDS011;2380;53.668;10.008;2022-11-27T00:14:11;49.10;;;20.50;;
4732;SDS011;2380;53.668;10.008;2022-11-27T00:16:41;49.10;;;19.83;;
4732;SDS011;2380;53.668;10.008;2022-11-27T00:19:11;65.17;;;22.77;;
4732;SDS011;2380;53.668;10.008;2022-11-27T00:21:43;62.97;;;21.90;;
4732;SDS011;2380;53.668;10.008;2022-11-27T00:24:12;50.00;;;18.90;;
4732;SDS011;2380;53.668;10.008;2022-11-27T00:26:42;55.63;;;20.33;;
4732;SDS011;2380;53.668;10.008;2022-11-27T00:29:12;59.93;;;21.20;;
4732;SDS011;2380;53.668;10.008;2022-11-27T00:31:41;67.33;;;19.80;;
4732;SDS011;2380;53.668;10.008;2022-11-27T00:34:11;64.47;;;21.77;;
4732;SDS011;2380;53.668;10.008;2022-11-27T00:36:43;49.00;;;19.00;;
4732;SDS011;2380;53.668;10.008;2022-11-27T00:39:13;54.00;;;19.40;;
4732;SDS011;2380;53.668;10.008;2022-11-27T00:41:43;62.13;;;21.77;;
4732;SDS011;2380;53.668;10.008;2022-11-27T00:44:12;61.67;;;20.07;;
4732;SDS011;2380;53.668;10.008;2022-11-27T00:46:42;55.70;;;20.13;;
4732;SDS011;2380;53.668;10.008;2022-11-27T00:49:12;48.87;;;19.37;;
4732;SDS011;2380;53.668;10.008;2022-11-27T00:51:45;59.53;;;18.83;;
4732;SDS011;2380;53.668;10.008;2022-11-27T00:54:14;62.17;;;21.37;;
4732;SDS011;2380;53.668;10.008;2022-11-27T00:56:48;60.17;;;20.67;;
4732;SDS011;2380;53.668;10.008;2022-11-27T00:59:17;47.63;;;18.00;;
4732;SDS011;2380;53.668;10.008;2022-11-27T01:01:46;50.37;;;19.50;;
4732;SDS011;2380;53.668;10.008;2022-11-27T01:04:16;54.10;;;17.57;;
4732;SDS011;2380;53.668;10.008;2022-11-27T01:06:49;42.60;;;16.93;;
4732;SDS011;2380;53.668;10.008;2022-11-27T01:09:21;57.13;;;18.63;;
4732;SDS011;2380;53.668;10.008;2022-11-27T01:11:51;45.83;;;17.90;;
4732;SDS011;2380;53.668;10.008;2022-11-27T01:14:21;49.53;;;17.07;;
4732;SDS011;2380;53.668;10.008;2022-11-27T01:16:50;51.00;;;18.67;;
4732;SDS011;2380;53.668;10.008;2022-11-27T01:19:19;59.37;;;18.40;;
4732;SDS011;2380;53.668;10.008;2022-11-27T01:21:51;57.33;;;18.20;;
4732;SDS011;2380;53.668;10.008;2022-11-27T01:24:23;50.47;;;17.70;;
4732;SDS011;2380;53.668;10.008;2022-11-27T01:26:52;48.43;;;16.87;;
4732;SDS011;2380;53.668;10.008;2022-11-27T01:29:22;62.67;;;16.77;;
4732;SDS011;2380;53.668;10.008;2022-11-27T01:31:51;61.53;;;18.87;;
4732;SDS011;2380;53.668;10.008;2022-11-27T01:34:21;55.73;;;17.17;;
4732;SDS011;2380;53.668;10.008;2022-11-27T01:36:53;46.20;;;17.20;;
4732;SDS011;2380;53.668;10.008;2022-11-27T01:39:22;45.23;;;17.03;;
4732;SDS011;2380;53.668;10.008;2022-11-27T01:41:52;43.73;;;16.97;;
4732;SDS011;2380;53.668;10.008;2022-11-27T01:47:17;42.17;;;16.07;;
4732;SDS011;2380;53.668;10.008;2022-11-27T01:50:06;42.20;;;15.87;;
4732;SDS011;2380;53.668;10.008;2022-11-27T01:52:41;49.93;;;15.20;;
4732;SDS011;2380;53.668;10.008;2022-11-27T01:55:14;42.47;;;16.50;;
4732;SDS011;2380;53.668;10.008;2022-11-27T01:57:47;37.83;;;15.13;;
4732;SDS011;2380;53.668;10.008;2022-11-27T02:00:18;42.00;;;16.03;;
4732;SDS011;2380;53.668;10.008;2022-11-27T02:02:48;38.97;;;14.03;;
4732;SDS011;2380;53.668;10.008;2022-11-27T02:05:19;31.33;;;15.17;;
4732;SDS011;2380;53.668;10.008;2022-11-27T02:07:53;38.00;;;15.47;;
4732;SDS011;2380;53.668;10.008;2022-11-27T02:10:25;31.23;;;14.40;;
4732;SDS011;2380;53.668;10.008;2022-11-27T02:13:01;33.10;;;14.57;;
4732;SDS011;2380;53.668;10.008;2022-11-27T02:15:34;42.63;;;13.87;;
4732;SDS011;2380;53.668;10.008;2022-11-27T02:18:09;44.37;;;16.27;;
4732;SDS011;2380;53.668;10.008;2022-11-27T02:20:46;36.70;;;14.93;;
4732;SDS011;2380;53.668;10.008;2022-11-27T02:23:28;41.43;;;15.60;;
4732;SDS011;2380;53.668;10.008;2022-11-27T02:29:28;32.77;;;13.93;;
4732;SDS011;2380;53.668;10.008;2022-11-27T02:32:01;35.73;;;14.23;;
4732;SDS011;2380;53.668;10.008;2022-11-27T02:34:36;33.90;;;13.23;;
4732;SDS011;2380;53.668;10.008;2022-11-27T02:37:11;34.80;;;12.40;;
4732;SDS011;2380;53.668;10.008;2022-11-27T02:39:44;32.80;;;13.80;;
4732;SDS011;2380;53.668;10.008;2022-11-27T02:42:18;32.37;;;12.50;;
4732;SDS011;2380;53.668;10.008;2022-11-27T02:44:54;31.93;;;13.33;;
4732;SDS011;2380;53.668;10.008;2022-11-27T02:47:27;40.67;;;13.73;;
4732;SDS011;2380;53.668;10.008;2022-11-27T02:49:57;28.20;;;12.00;;
4732;SDS011;2380;53.668;10.008;2022-11-27T02:52:27;33.60;;;12.80;;
4732;SDS011;2380;53.668;10.008;2022-11-27T02:54:58;36.43;;;12.43;;
4732;SDS011;2380;53.668;10.008;2022-11-27T02:57:28;34.07;;;12.40;;
4732;SDS011;2380;53.668;10.008;2022-11-27T03:00:02;34.87;;;12.80;;
4732;SDS011;2380;53.668;10.008;2022-11-27T03:02:34;31.63;;;12.80;;
4732;SDS011;2380;53.668;10.008;2022-11-27T03:05:05;29.77;;;12.50;;
4732;SDS011;2380;53.668;10.008;2022-11-27T03:07:38;36.33;;;13.10;;
4732;SDS011;2380;53.668;10.008;2022-11-27T03:10:11;35.33;;;13.50;;
4732;SDS011;2380;53.668;10.008;2022-11-27T03:12:44;35.10;;;12.27;;
4732;SDS011;2380;53.668;10.008;2022-11-27T03:15:16;32.87;;;13.63;;
4732;SDS011;2380;53.668;10.008;2022-11-27T03:17:48;32.30;;;12.30;;
4732;SDS011;2380;53.668;10.008;2022-11-27T03:20:21;39.77;;;13.33;;
4732;SDS011;2380;53.668;10.008;2022-11-27T03:22:52;33.70;;;11.90;;
4732;SDS011;2380;53.668;10.008;2022-11-27T03:25:22;42.97;;;12.97;;
4732;SDS011;2380;53.668;10.008;2022-11-27T03:27:53;49.90;;;18.50;;
4732;SDS011;2380;53.668;10.008;2022-11-27T03:30:27;44.23;;;13.23;;
4732;SDS011;2380;53.668;10.008;2022-11-27T03:32:56;47.47;;;14.97;;
4732;SDS011;2380;53.668;10.008;2022-11-27T03:35:27;28.30;;;11.57;;
4732;SDS011;2380;53.668;10.008;2022-11-27T03:37:57;44.00;;;14.37;;
4732;SDS011;2380;53.668;10.008;2022-11-27T03:40:28;27.50;;;12.23;;
4732;SDS011;2380;53.668;10.008;2022-11-27T03:43:02;31.10;;;11.50;;
4732;SDS011;2380;53.668;10.008;2022-11-27T03:45:37;38.93;;;12.53;;
4732;SDS011;2380;53.668;10.008;2022-11-27T03:48:12;32.80;;;13.37;;
4732;SDS011;2380;53.668;10.008;2022-11-27T03:50:50;31.13;;;13.43;;
4732;SDS011;2380;53.668;10.008;2022-11-27T03:53:30;25.37;;;11.20;;
4732;SDS011;2380;53.668;10.008;2022-11-27T03:56:05;29.93;;;12.60;;
4732;SDS011;2380;53.668;10.008;2022-11-27T03:58:37;32.87;;;12.13;;
4732;SDS011;2380;53.668;10.008;2022-11-27T04:01:12;30.27;;;11.40;;
4732;SDS011;2380;53.668;10.008;2022-11-27T04:03:43;30.17;;;10.83;;
4732;SDS011;2380;53.668;10.008;2022-11-27T04:06:12;23.40;;;11.43;;
4732;SDS011;2380;53.668;10.008;2022-11-27T04:08:42;39.80;;;16.53;;
4732;SDS011;2380;53.668;10.008;2022-11-27T04:11:11;73.00;;;31.23;;
4732;SDS011;2380;53.668;10.008;2022-11-27T04:13:41;33.80;;;14.37;;
4732;SDS011;2380;53.668;10.008;2022-11-27T04:16:13;35.70;;;12.23;;
4732;SDS011;2380;53.668;10.008;2022-11-27T04:18:43;32.10;;;13.20;;
4732;SDS011;2380;53.668;10.008;2022-11-27T04:21:13;31.37;;;12.80;;
4732;SDS011;2380;53.668;10.008;2022-11-27T04:23:43;36.70;;;14.60;;
4732;SDS011;2380;53.668;10.008;2022-11-27T04:26:13;31.53;;;12.40;;
4732;SDS011;2380;53.668;10.008;2022-11-27T04:28:42;32.80;;;13.13;;
4732;SDS011;2380;53.668;10.008;2022-11-27T04:31:14;37.07;;;13.40;;
4732;SDS011;2380;53.668;10.008;2022-11-27T04:33:44;32.07;;;12.63;;
4732;SDS011;2380;53.668;10.008;2022-11-27T04:36:13;35.03;;;12.03;;
4732;SDS011;2380;53.668;10.008;2022-11-27T04:38:42;29.67;;;13.20;;
4732;SDS011;2380;53.668;10.008;2022-11-27T04:41:12;30.17;;;12.80;;
4732;SDS011;2380;53.668;10.008;2022-11-27T04:43:41;30.93;;;13.10;;
4732;SDS011;2380;53.668;10.008;2022-11-27T04:46:13;32.43;;;13.23;;
4732;SDS011;2380;53.668;10.008;2022-11-27T04:48:43;35.17;;;14.43;;
4732;SDS011;2380;53.668;10.008;2022-11-27T04:51:12;35.83;;;14.20;;
4732;SDS011;2380;53.668;10.008;2022-11-27T04:53:41;39.03;;;15.50;;
4732;SDS011;2380;53.668;10.008;2022-11-27T04:56:11;40.20;;;17.13;;
4732;SDS011;2380;53.668;10.008;2022-11-27T04:58:40;53.33;;;19.03;;
4732;SDS011;2380;53.668;10.008;2022-11-27T05:01:10;58.70;;;17.03;;
4732;SDS011;2380;53.668;10.008;2022-11-27T05:03:42;60.70;;;19.13;;
4732;SDS011;2380;53.668;10.008;2022-11-27T05:06:11;71.20;;;20.20;;
4732;SDS011;2380;53.668;10.008;2022-11-27T05:08:41;53.43;;;19.40;;
4732;SDS011;2380;53.668;10.008;2022-11-27T05:11:11;46.00;;;18.33;;
4732;SDS011;2380;53.668;10.008;2022-11-27T05:13:42;47.37;;;19.23;;
4732;SDS011;2380;53.668;10.008;2022-11-27T05:16:12;46.77;;;20.00;;
4732;SDS011;2380;53.668;10.008;2022-11-27T05:18:44;64.80;;;20.10;;
4732;SDS011;2380;53.668;10.008;2022-11-27T05:21:13;72.73;;;25.97;;
4732;SDS011;2380;53.668;10.008;2022-11-27T05:23:43;47.67;;;19.87;;
4732;SDS011;2380;53.668;10.008;2022-11-27T05:26:12;50.23;;;20.27;;
4732;SDS011;2380;53.668;10.008;2022-11-27T05:28:41;53.70;;;19.20;;
4732;SDS011;2380;53.668;10.008;2022-11-27T05:31:11;56.80;;;20.77;;
4732;SDS011;2380;53.668;10.008;2022-11-27T05:33:40;54.13;;;20.50;;
4732;SDS011;2380;53.668;10.008;2022-11-27T05:36:12;42.90;;;18.60;;
4732;SDS011;2380;53.668;10.008;2022-11-27T05:38:42;52.00;;;22.00;;
4732;SDS011;2380;53.668;10.008;2022-11-27T05:41:11;61.47;;;20.60;;
4732;SDS011;2380;53.668;10.008;2022-11-27T05:43:41;57.53;;;23.20;;
4732;SDS011;2380;53.668;10.008;2022-11-27T05:46:12;59.77;;;21.43;;
4732;SDS011;2380;53.668;10.008;2022-11-27T05:48:43;54.50;;;19.97;;
4732;SDS011;2380;53.668;10.008;2022-11-27T05:51:15;67.87;;;20.03;;
4732;SDS011;2380;53.668;10.008;2022-11-27T05:53:45;62.77;;;21.30;;
4732;SDS011;2380;53.668;10.008;2022-11-27T05:56:15;52.17;;;20.97;;
4732;SDS011;2380;53.668;10.008;2022-11-27T05:58:45;63.03;;;22.70;;
4732;SDS011;2380;53.668;10.008;2022-11-27T06:01:17;65.63;;;24.20;;
4732;SDS011;2380;53.668;10.008;2022-11-27T06:03:47;57.97;;;20.03;;
4732;SDS011;2380;53.668;10.008;2022-11-27T06:06:19;62.13;;;21.23;;
4732;SDS011;2380;53.668;10.008;2022-11-27T06:08:48;55.30;;;22.20;;
4732;SDS011;2380;53.668;10.008;2022-11-27T06:11:19;69.03;;;21.90;;
4732;SDS011;2380;53.668;10.008;2022-11-27T06:13:49;59.33;;;21.73;;
4732;SDS011;2380;53.668;10.008;2022-11-27T06:16:19;58.10;;;22.57;;
4732;SDS011;2380;53.668;10.008;2022-11-27T06:18:50;53.60;;;22.33;;
4732;SDS011;2380;53.668;10.008;2022-11-27T06:21:23;48.40;;;23.10;;
4732;SDS011;2380;53.668;10.008;2022-11-27T06:23:53;47.03;;;20.70;;
4732;SDS011;2380;53.668;10.008;2022-11-27T06:26:24;62.33;;;22.37;;
4732;SDS011;2380;53.668;10.008;2022-11-27T06:28:55;65.43;;;24.30;;
4732;SDS011;2380;53.668;10.008;2022-11-27T06:31:27;53.03;;;19.47;;
4732;SDS011;2380;53.668;10.008;2022-11-27T06:33:58;84.30;;;34.63;;
4732;SDS011;2380;53.668;10.008;2022-11-27T06:36:31;127.07;;;54.60;;
4732;SDS011;2380;53.668;10.008;2022-11-27T06:39:02;76.10;;;33.77;;
4732;SDS011;2380;53.668;10.008;2022-11-27T06:41:33;91.53;;;40.27;;
4732;SDS011;2380;53.668;10.008;2022-11-27T06:44:02;56.33;;;27.57;;
4732;SDS011;2380;53.668;10.008;2022-11-27T06:46:32;59.77;;;27.60;;
4732;SDS011;2380;53.668;10.008;2022-11-27T06:49:02;48.10;;;24.97;;
4732;SDS011;2380;53.668;10.008;2022-11-27T06:51:34;39.23;;;20.00;;
4732;SDS011;2380;53.668;10.008;2022-11-27T06:54:03;32.93;;;17.43;;
4732;SDS011;2380;53.668;10.008;2022-11-27T06:56:33;30.63;;;16.63;;
4732;SDS011;2380;53.668;10.008;2022-11-27T06:59:02;31.33;;;14.60;;
4732;SDS011;2380;53.668;10.008;2022-11-27T07:01:32;31.73;;;15.30;;
4732;SDS011;2380;53.668;10.008;2022-11-27T07:04:01;28.80;;;14.33;;
4732;SDS011;2380;53.668;10.008;2022-11-27T07:06:33;29.23;;;14.60;;
4732;SDS011;2380;53.668;10.008;2022-11-27T07:09:03;32.10;;;14.53;;
4732;SDS011;2380;53.668;10.008;2022-11-27T07:11:33;31.13;;;14.77;;
4732;SDS011;2380;53.668;10.008;2022-11-27T07:14:03;27.43;;;14.10;;
4732;SDS011;2380;53.668;10.008;2022-11-27T07:16:33;33.83;;;15.33;;
4732;SDS011;2380;53.668;10.008;2022-11-27T07:19:04;31.93;;;14.97;;
4732;SDS011;2380;53.668;10.008;2022-11-27T07:21:38;30.10;;;13.80;;
4732;SDS011;2380;53.668;10.008;2022-11-27T07:24:08;30.60;;;14.27;;
4732;SDS011;2380;53.668;10.008;2022-11-27T07:26:37;34.87;;;15.20;;
4732;SDS011;2380;53.668;10.008;2022-11-27T07:29:07;36.10;;;16.47;;
4732;SDS011;2380;53.668;10.008;2022-11-27T07:31:36;32.90;;;15.37;;
4732;SDS011;2380;53.668;10.008;2022-11-27T07:34:05;27.73;;;13.97;;
4732;SDS011;2380;53.668;10.008;2022-11-27T07:36:47;38.33;;;16.70;;
4732;SDS011;2380;53.668;10.008;2022-11-27T07:39:17;31.87;;;15.93;;
4732;SDS011;2380;53.668;10.008;2022-11-27T07:42:07;37.33;;;16.27;;
4732;SDS011;2380;53.668;10.008;2022-11-27T07:44:56;37.77;;;15.87;;
4732;SDS011;2380;53.668;10.008;2022-11-27T07:47:26;39.47;;;16.33;;
4732;SDS011;2380;53.668;10.008;2022-11-27T07:49:57;33.07;;;15.67;;
4732;SDS011;2380;53.668;10.008;2022-11-27T07:52:29;35.57;;;16.57;;
4732;SDS011;2380;53.668;10.008;2022-11-27T07:55:06;41.63;;;17.10;;
4732;SDS011;2380;53.668;10.008;2022-11-27T07:57:36;36.17;;;16.23;;
4732;SDS011;2380;53.668;10.008;2022-11-27T08:00:06;37.43;;;17.50;;
4732;SDS011;2380;53.668;10.008;2022-11-27T08:02:36;55.30;;;18.00;;
4732;SDS011;2380;53.668;10.008;2022-11-27T08:05:06;52.07;;;17.57;;
4732;SDS011;2380;53.668;10.008;2022-11-27T08:07:41;44.67;;;16.27;;
4732;SDS011;2380;53.668;10.008;2022-11-27T08:10:10;39.10;;;15.13;;
4732;SDS011;2380;53.668;10.008;2022-11-27T08:12:40;35.60;;;15.57;;
4732;SDS011;2380;53.668;10.008;2022-11-27T08:15:09;38.57;;;17.10;;
4732;SDS011;2380;53.668;10.008;2022-11-27T08:17:39;30.93;;;15.30;;
4732;SDS011;2380;53.668;10.008;2022-11-27T08:20:09;37.00;;;17.17;;
4732;SDS011;2380;53.668;10.008;2022-11-27T08:22:41;34.57;;;15.40;;
4732;SDS011;2380;53.668;10.008;2022-11-27T08:25:10;38.87;;;15.43;;
4732;SDS011;2380;53.668;10.008;2022-11-27T08:27:40;32.27;;;15.03;;
4732;SDS011;2380;53.668;10.008;2022-11-27T08:30:10;31.70;;;14.20;;
4732;SDS011;2380;53.668;10.008;2022-11-27T08:32:43;32.63;;;14.47;;
4732;SDS011;2380;53.668;10.008;2022-11-27T08:35:12;35.97;;;15.70;;
4732;SDS011;2380;53.668;10.008;2022-11-27T08:37:44;35.83;;;14.53;;
4732;SDS011;2380;53.668;10.008;2022-11-27T08:40:14;38.33;;;14.47;;
4732;SDS011;2380;53.668;10.008;2022-11-27T08:42:43;37.63;;;15.10;;
4732;SDS011;2380;53.668;10.008;2022-11-27T08:45:13;40.67;;;14.73;;
4732;SDS011;2380;53.668;10.008;2022-11-27T08:47:42;36.67;;;14.03;;
4732;SDS011;2380;53.668;10.008;2022-11-27T08:50:12;36.50;;;14.70;;
4732;SDS011;2380;53.668;10.008;2022-11-27T08:52:41;33.00;;;13.50;;
4732;SDS011;2380;53.668;10.008;2022-11-27T08:55:13;30.83;;;13.40;;
4732;SDS011;2380;53.668;10.008;2022-11-27T08:57:43;34.73;;;14.90;;
4732;SDS011;2380;53.668;10.008;2022-11-27T09:00:13;32.73;;;13.40;;
4732;SDS011;2380;53.668;10.008;2022-11-27T09:02:43;29.73;;;13.03;;
4732;SDS011;2380;53.668;10.008;2022-11-27T09:05:12;30.53;;;13.00;;
4732;SDS011;2380;53.668;10.008;2022-11-27T09:07:42;29.53;;;12.93;;
4732;SDS011;2380;53.668;10.008;2022-11-27T09:10:14;29.47;;;12.20;;
4732;SDS011;2380;53.668;10.008;2022-11-27T09:12:43;34.03;;;11.67;;
4732;SDS011;2380;53.668;10.008;2022-11-27T09:15:16;23.40;;;11.33;;
4732;SDS011;2380;53.668;10.008;2022-11-27T09:17:46;26.37;;;11.67;;
4732;SDS011;2380;53.668;10.008;2022-11-27T09:20:15;31.30;;;11.93;;
4732;SDS011;2380;53.668;10.008;2022-11-27T09:22:45;21.60;;;11.87;;
4732;SDS011;2380;53.668;10.008;2022-11-27T09:25:17;21.03;;;10.40;;
4732;SDS011;2380;53.668;10.008;2022-11-27T09:27:47;24.53;;;11.43;;
4732;SDS011;2380;53.668;10.008;2022-11-27T09:30:17;27.23;;;11.97;;
4732;SDS011;2380;53.668;10.008;2022-11-27T09:32:46;24.53;;;11.47;;
4732;SDS011;2380;53.668;10.008;2022-11-27T09:35:16;25.37;;;11.60;;
4732;SDS011;2380;53.668;10.008;2022-11-27T09:37:45;25.20;;;12.30;;
4732;SDS011;2380;53.668;10.008;2022-11-27T09:40:18;23.10;;;11.63;;
4732;SDS011;2380;53.668;10.008;2022-11-27T09:42:48;34.90;;;11.20;;
4732;SDS011;2380;53.668;10.008;2022-11-27T09:45:21;30.27;;;12.00;;
4732;SDS011;2380;53.668;10.008;2022-11-27T09:47:53;28.07;;;12.07;;
4732;SDS011;2380;53.668;10.008;2022-11-27T09:50:25;27.77;;;11.87;;
4732;SDS011;2380;53.668;10.008;2022-11-27T09:52:56;30.80;;;13.67;;
4732;SDS011;2380;53.668;10.008;2022-11-27T09:55:32;31.60;;;12.50;;
4732;SDS011;2380;53.668;10.008;2022-11-27T09:58:10;28.30;;;12.40;;
4732;SDS011;2380;53.668;10.008;2022-11-27T10:00:43;24.90;;;11.50;;
4732;SDS011;2380;53.668;10.008;2022-11-27T10:03:13;28.47;;;12.00;;
4732;SDS011;2380;53.668;10.008;2022-11-27T10:05:47;26.60;;;12.73;;
4732;SDS011;2380;53.668;10.008;2022-11-27T10:08:22;26.50;;;11.33;;
4732;SDS011;2380;53.668;10.008;2022-11-27T10:10:59;25.60;;;10.63;;
4732;SDS011;2380;53.668;10.008;2022-11-27T10:13:39;19.70;;;10.40;;
4732;SDS011;2380;53.668;10.008;2022-11-27T10:16:25;24.97;;;12.77;;
4732;SDS011;2380;53.668;10.008;2022-11-27T10:19:02;24.50;;;11.57;;
4732;SDS011;2380;53.668;10.008;2022-11-27T10:21:37;21.10;;;11.23;;
4732;SDS011;2380;53.668;10.008;2022-11-27T10:24:12;26.10;;;10.20;;
4732;SDS011;2380;53.668;10.008;2022-11-27T10:26:49;22.90;;;10.13;;
4732;SDS011;2380;53.668;10.008;2022-11-27T10:29:26;26.23;;;11.40;;
4732;SDS011;2380;53.668;10.008;2022-11-27T10:32:03;31.10;;;13.67;;
4732;SDS011;2380;53.668;10.008;2022-11-27T10:34:57;28.63;;;11.40;;
4732;SDS011;2380;53.668;10.008;2022-11-27T10:37:31;23.60;;;10.50;;
4732;SDS011;2380;53.668;10.008;2022-11-27T10:40:05;23.57;;;11.47;;
4732;SDS011;2380;53.668;10.008;2022-11-27T10:42:44;23.90;;;10.50;;
4732;SDS011;2380;53.668;10.008;2022-11-27T10:45:19;27.73;;;11.80;;
4732;SDS011;2380;53.668;10.008;2022-11-27T10:47:50;19.23;;;9.47;;
4732;SDS011;2380;53.668;10.008;2022-11-27T10:50:19;21.20;;;9.87;;
4732;SDS011;2380;53.668;10.008;2022-11-27T10:52:50;21.13;;;9.90;;
4732;SDS011;2380;53.668;10.008;2022-11-27T10:55:25;23.17;;;11.27;;
4732;SDS011;2380;53.668;10.008;2022-11-27T10:58:04;27.17;;;12.00;;
4732;SDS011;2380;53.668;10.008;2022-11-27T11:00:36;23.50;;;9.77;;
4732;SDS011;2380;53.668;10.008;2022-11-27T11:03:14;21.63;;;10.93;;
4732;SDS011;2380;53.668;10.008;2022-11-27T11:05:53;26.07;;;11.63;;
4732;SDS011;2380;53.668;10.008;2022-11-27T11:08:44;22.23;;;10.13;;
4732;SDS011;2380;53.668;10.008;2022-11-27T11:11:23;23.77;;;11.27;;
4732;SDS011;2380;53.668;10.008;2022-11-27T11:13:56;18.10;;;9.33;;
4732;SDS011;2380;53.668;10.008;2022-11-27T11:16:26;31.70;;;13.40;;
4732;SDS011;2380;53.668;10.008;2022-11-27T11:19:01;22.33;;;10.07;;
4732;SDS011;2380;53.668;10.008;2022-11-27T11:21:34;23.23;;;9.80;;
4732;SDS011;2380;53.668;10.008;2022-11-27T11:24:11;23.83;;;11.20;;
4732;SDS011;2380;53.668;10.008;2022-11-27T11:26:43;23.07;;;11.53;;
4732;SDS011;2380;53.668;10.008;2022-11-27T11:29:21;22.13;;;10.90;;
4732;SDS011;2380;53.668;10.008;2022-11-27T11:31:55;19.27;;;10.07;;
4732;SDS011;2380;53.668;10.008;2022-11-27T11:34:28;22.30;;;11.40;;
4732;SDS011;2380;53.668;10.008;2022-11-27T11:36:59;20.23;;;10.00;;
4732;SDS011;2380;53.668;10.008;2022-11-27T11:39:30;17.77;;;10.23;;
4732;SDS011;2380;53.668;10.008;2022-11-27T11:42:07;21.17;;;10.50;;
4732;SDS011;2380;53.668;10.008;2022-11-27T11:44:40;21.97;;;10.60;;
4732;SDS011;2380;53.668;10.008;2022-11-27T11:47:13;19.80;;;9.87;;
4732;SDS011;2380;53.668;10.008;2022-11-27T11:49:47;40.30;;;18.33;;
4732;SDS011;2380;53.668;10.008;2022-11-27T11:52:23;37.13;;;15.77;;
4732;SDS011;2380;53.668;10.008;2022-11-27T11:55:09;94.47;;;43.57;;
4732;SDS011;2380;53.668;10.008;2022-11-27T11:57:48;37.37;;;19.00;;
4732;SDS011;2380;53.668;10.008;2022-11-27T12:00:28;34.37;;;18.03;;
4732;SDS011;2380;53.668;10.008;2022-11-27T12:03:28;23.03;;;12.40;;
4732;SDS011;2380;53.668;10.008;2022-11-27T12:06:07;44.07;;;21.60;;
4732;SDS011;2380;53.668;10.008;2022-11-27T12:08:48;29.10;;;12.90;;
4732;SDS011;2380;53.668;10.008;2022-11-27T12:11:23;40.73;;;19.50;;
4732;SDS011;2380;53.668;10.008;2022-11-27T12:14:01;27.43;;;12.40;;
4732;SDS011;2380;53.668;10.008;2022-11-27T12:16:43;29.40;;;13.70;;
4732;SDS011;2380;53.668;10.008;2022-11-27T12:22:26;31.90;;;15.40;;
4732;SDS011;2380;53.668;10.008;2022-11-27T12:25:09;25.40;;;13.53;;
4732;SDS011;2380;53.668;10.008;2022-11-27T12:27:53;22.13;;;8.10;;
4732;SDS011;2380;53.668;10.008;2022-11-27T12:30:35;13.20;;;8.03;;
4732;SDS011;2380;53.668;10.008;2022-11-27T12:33:16;19.80;;;10.10;;
4732;SDS011;2380;53.668;10.008;2022-11-27T12:35:56;19.20;;;9.40;;
4732;SDS011;2380;53.668;10.008;2022-11-27T12:38:31;19.23;;;9.13;;
4732;SDS011;2380;53.668;10.008;2022-11-27T12:41:23;23.50;;;9.53;;
4732;SDS011;2380;53.668;10.008;2022-11-27T12:44:00;23.83;;;10.97;;
4732;SDS011;2380;53.668;10.008;2022-11-27T12:46:32;26.23;;;10.50;;
4732;SDS011;2380;53.668;10.008;2022-11-27T12:49:09;21.70;;;9.50;;
4732;SDS011;2380;53.668;10.008;2022-11-27T12:51:43;68.57;;;31.00;;
4732;SDS011;2380;53.668;10.008;2022-11-27T12:54:16;79.03;;;36.27;;
4732;SDS011;2380;53.668;10.008;2022-11-27T12:56:51;21.70;;;7.67;;
4732;SDS011;2380;53.668;10.008;2022-11-27T12:59:24;22.00;;;9.30;;
4732;SDS011;2380;53.668;10.008;2022-11-27T13:02:00;20.63;;;9.70;;
4732;SDS011;2380;53.668;10.008;2022-11-27T13:04:36;15.90;;;8.83;;
4732;SDS011;2380;53.668;10.008;2022-11-27T13:07:10;17.70;;;8.77;;
4732;SDS011;2380;53.668;10.008;2022-11-27T13:09:44;19.60;;;10.40;;
4732;SDS011;2380;53.668;10.008;2022-11-27T13:12:19;31.97;;;17.27;;
4732;SDS011;2380;53.668;10.008;2022-11-27T13:14:56;14.97;;;8.20;;
4732;SDS011;2380;53.668;10.008;2022-11-27T13:17:31;19.70;;;10.60;;
4732;SDS011;2380;53.668;10.008;2022-11-27T13:20:13;15.50;;;7.47;;
4732;SDS011;2380;53.668;10.008;2022-11-27T13:22:44;17.43;;;8.30;;
4732;SDS011;2380;53.668;10.008;2022-11-27T13:25:15;15.50;;;8.20;;
4732;SDS011;2380;53.668;10.008;2022-11-27T13:27:45;13.10;;;7.90;;
4732;SDS011;2380;53.668;10.008;2022-11-27T13:30:19;19.17;;;8.70;;
4732;SDS011;2380;53.668;10.008;2022-11-27T13:32:51;18.53;;;8.37;;
4732;SDS011;2380;53.668;10.008;2022-11-27T13:35:25;15.27;;;8.10;;
4732;SDS011;2380;53.668;10.008;2022-11-27T13:37:57;21.83;;;11.07;;
4732;SDS011;2380;53.668;10.008;2022-11-27T13:40:31;22.03;;;10.80;;
4732;SDS011;2380;53.668;10.008;2022-11-27T13:43:05;17.13;;;9.10;;
4732;SDS011;2380;53.668;10.008;2022-11-27T13:45:47;16.10;;;9.00;;
4732;SDS011;2380;53.668;10.008;2022-11-27T13:48:22;16.00;;;8.97;;
4732;SDS011;2380;53.668;10.008;2022-11-27T13:50:57;14.97;;;7.80;;
4732;SDS011;2380;53.668;10.008;2022-11-27T13:53:31;16.50;;;8.23;;
4732;SDS011;2380;53.668;10.008;2022-11-27T13:56:03;22.50;;;10.03;;
4732;SDS011;2380;53.668;10.008;2022-11-27T13:58:34;22.03;;;10.77;;
4732;SDS011;2380;53.668;10.008;2022-11-27T14:01:15;26.77;;;10.70;;
4732;SDS011;2380;53.668;10.008;2022-11-27T14:03:45;18.17;;;9.50;;
4732;SDS011;2380;53.668;10.008;2022-11-27T14:06:22;21.03;;;10.10;;
4732;SDS011;2380;53.668;10.008;2022-11-27T14:08:57;17.10;;;9.30;;
4732;SDS011;2380;53.668;10.008;2022-11-27T14:11:29;18.53;;;8.40;;
4732;SDS011;2380;53.668;10.008;2022-11-27T14:14:01;21.30;;;8.40;;
4732;SDS011;2380;53.668;10.008;2022-11-27T14:16:38;15.10;;;8.10;;
4732;SDS011;2380;53.668;10.008;2022-11-27T14:19:21;15.37;;;7.77;;
4732;SDS011;2380;53.668;10.008;2022-11-27T14:22:01;15.53;;;8.27;;
4732;SDS011;2380;53.668;10.008;2022-11-27T14:24:42;16.87;;;8.80;;
4732;SDS011;2380;53.668;10.008;2022-11-27T14:27:16;21.30;;;9.57;;
4732;SDS011;2380;53.668;10.008;2022-11-27T14:29:46;22.47;;;8.27;;
4732;SDS011;2380;53.668;10.008;2022-11-27T14:32:17;16.60;;;8.50;;
4732;SDS011;2380;53.668;10.008;2022-11-27T14:34:47;17.37;;;8.87;;
4732;SDS011;2380;53.668;10.008;2022-11-27T14:37:23;17.50;;;8.10;;
4732;SDS011;2380;53.668;10.008;2022-11-27T14:39:54;16.83;;;7.77;;
4732;SDS011;2380;53.668;10.008;2022-11-27T14:42:24;14.63;;;8.03;;
4732;SDS011;2380;53.668;10.008;2022-11-27T14:45:01;15.07;;;8.80;;
4732;SDS011;2380;53.668;10.008;2022-11-27T14:47:31;17.93;;;8.13;;
4732;SDS011;2380;53.668;10.008;2022-11-27T14:50:01;21.70;;;8.33;;
4732;SDS011;2380;53.668;10.008;2022-11-27T14:52:35;16.37;;;8.53;;
4732;SDS011;2380;53.668;10.008;2022-11-27T14:55:07;18.23;;;9.17;;
4732;SDS011;2380;53.668;10.008;2022-11-27T14:57:40;21.93;;;8.63;;
4732;SDS011;2380;53.668;10.008;2022-11-27T15:00:14;18.50;;;8.60;;
4732;SDS011;2380;53.668;10.008;2022-11-27T15:02:46;17.60;;;9.10;;
4732;SDS011;2380;53.668;10.008;2022-11-27T15:05:19;18.07;;;8.33;;
4732;SDS011;2380;53.668;10.008;2022-11-27T15:07:53;13.73;;;7.57;;
4732;SDS011;2380;53.668;10.008;2022-11-27T15:10:27;18.13;;;8.93;;
4732;SDS011;2380;53.668;10.008;2022-11-27T15:12:59;17.30;;;9.00;;
4732;SDS011;2380;53.668;10.008;2022-11-27T15:15:40;17.27;;;9.10;;
4732;SDS011;2380;53.668;10.008;2022-11-27T15:18:13;20.53;;;9.40;;